• Join FlightAware (Why Join?)
  • Login
  • US Flag 
09:09AM EDT


 

Airport Tracker/Info


-or-


 

Live Flight TrackerFlight Track Log ✈ SWA3034 ✈ 11-Oct-2013 ✈ KLAS - KDEN

Flight Track Log - Related Links

Times and Time Zones

All times are in EDT time to prevent confusion due to time zone crossing. See the SWA3034 flight status page for this flight to view local times or setup timezone preferences in your user account.

Time Position Orientation Groundspeed Altitude Reporting Facility
EDT Latitude Longitude Course Direction KTS MPH feet Rate Location/Type
08:38PM 36.0756 -115.2408 270° West 203 234 5,100  Level Los Angeles Center
08:38PM 36.0800 -115.2653 283° West 240 276 5,900 2,880 Climbing Los Angeles Center
08:39PM 36.1211 -115.2931 331° Northwest 248 285 8,100 3,120 Climbing Los Angeles Center
08:39PM 36.1358 -115.2950 354° North 257 296 8,800 3,180 Climbing Los Angeles Center
08:40PM 36.1756 -115.2497 43° Northeast 255 293 11,400 2,640 Climbing Los Angeles Center
08:40PM 36.1844 -115.2203 69° East 280 322 11,800 2,400 Climbing Los Angeles Center
08:41PM 36.1964 -115.1183 82° East 336 387 13,900 2,580 Climbing Los Angeles Center
08:41PM 36.1950 -115.0889 93° East 354 407 14,700 3,000 Climbing Los Angeles Center
08:42PM 36.1986 -114.9925 87° East 363 418 17,000 2,940 Climbing Los Angeles Center
08:43PM 36.1992 -114.8578 90° East 384 442 20,100 2,580 Climbing Los Angeles Center
08:44PM 36.2006 -114.7169 89° East 402 463 22,400 2,220 Climbing Los Angeles Center
08:45PM 36.1956 -114.5653 92° East 434 499 24,700 2,160 Climbing Los Angeles Center
08:46PM 36.1942 -114.4103 91° East 449 517 26,900 2,160 Climbing Los Angeles Center
08:47PM 36.2039 -114.2203 86° East 463 533 29,300 1,980 Climbing Los Angeles Center
08:48PM 36.2556 -114.0758 66° East 460 529 31,000 1,740 Climbing Los Angeles Center
08:49PM 36.3108 -113.9306 65° Northeast 465 535 33,000 1,260 Climbing Los Angeles Center
08:50PM 36.3661 -113.7847 65° Northeast 467 537 33,700 1,260 Climbing Los Angeles Center
08:51PM 36.4192 -113.6411 65° Northeast 461 531 35,700 1,860 Climbing Los Angeles Center
08:52PM 36.4717 -113.5014 65° Northeast 450 518 37,600 1,560 Climbing Los Angeles Center
08:53PM 36.5258 -113.3506 66° East 440 506 39,000 660 Climbing Los Angeles Center
08:54PM 36.5761 -113.2147 65° Northeast 435 501 39,000  Level Los Angeles Center
08:55PM 36.6369 -113.0478 66° East 442 509 39,000  Level Los Angeles Center
08:56PM 36.6872 -112.9092 66° East 441 507 39,000  Level Los Angeles Center
08:57PM 36.7375 -112.7719 65° Northeast 440 506 39,000  Level Los Angeles Center
08:58PM 36.7878 -112.6325 66° East 442 509 39,000  Level Los Angeles Center
08:59PM 36.8383 -112.4931 66° East 444 511 39,000  Level Los Angeles Center
09:00PM 36.8986 -112.3236 66° East 447 514 39,000  Level Los Angeles Center
09:01PM 36.9481 -112.1817 66° East 448 516 39,000  Level Los Angeles Center
09:03PM 37.0083 -112.0125 66° East 446 513 39,000  Level Los Angeles Center
09:04PM 37.0581 -111.8706 66° East 446 513 39,000  Level Los Angeles Center
09:05PM 37.1078 -111.7292 66° East 447 514 39,000  Level Los Angeles Center
09:06PM 37.1572 -111.5869 66° East 446 513 39,000  Level Denver Center
09:07PM 37.2061 -111.4433 67° East 450 518 39,000  Level Denver Center
09:08PM 37.2561 -111.3008 66° East 448 516 39,000  Level Denver Center
09:09PM 37.3056 -111.1564 67° East 451 519 39,000  Level Denver Center
09:10PM 37.3639 -110.9825 67° East 453 521 39,000  Level Denver Center
09:11PM 37.4139 -110.8364 67° East 456 525 39,000  Level Denver Center
09:12PM 37.4639 -110.6906 67° East 456 525 39,000  Level Denver Center
09:13PM 37.5119 -110.5439 68° East 455 524 39,000  Level Denver Center
09:14PM 37.5656 -110.3842 67° East 463 533 39,000  Level Denver Center
09:15PM 37.6128 -110.2417 67° East 462 532 39,000  Level Denver Center
09:16PM 37.6694 -110.0725 67° East 467 537 39,000  Level Denver Center
09:17PM 37.7169 -109.9272 68° East 467 537 39,000  Level Denver Center
09:18PM 37.7722 -109.7581 67° East 467 537 39,000  Level Denver Center
09:19PM 37.8194 -109.6122 68° East 467 537 39,000  Level Denver Center
09:20PM 37.8747 -109.4397 68° East 471 542 39,000  Level Denver Center
09:21PM 37.9231 -109.2922 67° East 473 544 39,000  Level Denver Center
09:22PM 37.9703 -109.1439 68° East 474 545 39,000  Level Denver Center
09:23PM 38.0256 -108.9686 68° East 477 549 39,000  Level Denver Center
09:24PM 38.0767 -108.8064 68° East 485 558 39,000  Level Denver Center
09:25PM 38.1244 -108.6544 68° East 486 559 39,000  Level Denver Center
09:26PM 38.1800 -108.4783 68° East 483 556 39,000  Level Denver Center
09:27PM 38.2267 -108.3286 68° East 478 550 39,000  Level Denver Center
09:28PM 38.2808 -108.1517 69° East 481 554 39,000  Level Denver Center
09:29PM 38.3272 -108.0017 68° East 480 552 39,000  Level Denver Center
09:30PM 38.3811 -107.8269 68° East 478 550 39,000  Level Denver Center
09:32PM 38.4258 -107.6778 69° East 474 545 39,000  Level Denver Center
09:33PM 38.4883 -107.5117 64° Northeast 469 540 39,000  Level Denver Center
09:34PM 38.5494 -107.3772 60° Northeast 462 532 39,000  Level Denver Center
09:35PM 38.6206 -107.2197 60° Northeast 459 528 39,000  Level Denver Center
09:36PM 38.6817 -107.0800 61° Northeast 456 525 39,000 -360 Level Denver Center
09:37PM 38.7458 -106.9367 60° Northeast 463 533 38,300 -780 Descending Denver Center
09:38PM 38.8089 -106.7919 61° Northeast 465 535 37,400 -1,020 Descending Denver Center
09:39PM 38.8853 -106.6200 60° Northeast 474 545 36,300 -1,020 Descending Denver Center
09:40PM 38.9506 -106.4825 59° Northeast 473 544 35,400 -1,020 Descending Denver Center
09:41PM 39.0250 -106.3186 60° Northeast 475 547 34,300 -1,980 Descending Denver Center
09:42PM 39.0947 -106.1633 60° Northeast 482 555 31,400 -2,520 Descending Denver Center
09:43PM 39.1550 -106.0283 60° Northeast 475 547 29,100 -2,220 Descending Denver Center
09:44PM 39.2167 -105.8869 61° Northeast 462 532 26,900 -2,160 Descending Denver Center
09:45PM 39.2772 -105.7503 60° Northeast 447 514 24,700 -2,160 Descending Denver Center
09:46PM 39.3447 -105.5950 61° Northeast 421 484 22,500 -1,680 Descending Denver Center
09:47PM 39.3978 -105.4750 60° Northeast 397 457 21,300 -1,440 Descending Denver Center
09:48PM 39.4581 -105.3642 55° Northeast 361 415 19,600 -1,620 Descending Denver Center
09:49PM 39.5119 -105.2597 56° Northeast 349 402 18,000 -1,260 Descending Denver Center
09:50PM 39.5692 -105.1514 56° Northeast 338 389 17,000 -600 Descending Denver Center
09:51PM 39.6144 -105.0631 56° Northeast 330 380 16,800 -900 Descending Denver Center
09:52PM 39.6653 -104.9656 56° Northeast 324 373 15,200 -1,740 Descending Denver Center
09:53PM 39.7275 -104.8542 54° Northeast 327 376 13,300 -1,620 Descending Denver Center
09:54PM 39.8078 -104.8403 North 295 339 11,900 -1,080 Descending Denver Center
09:55PM 39.8903 -104.8392 North 272 313 11,100 -540 Descending Denver Center
09:56PM 39.9592 -104.8389 360° North 246 283 10,900 -720 Descending Denver Center
09:57PM 40.0228 -104.8400 359° North 229 264 9,700 -1,020 Descending Denver Center
09:58PM 40.0931 -104.8400 360° North 233 268 8,900 -660 Descending Denver Center
09:59PM 40.1397 -104.8039 31° Northeast 231 266 8,400 -780 Descending Denver Center
10:00PM 40.1047 -104.7508 131° Southeast 208 239 7,400 -780 Descending Denver Center
10:01PM 40.0494 -104.7178 155° Southeast 203 234 6,900 -300 Descending Denver Center
10:02PM 40.0025 -104.6944 159° South 186 214 6,900 -240 Level Denver Center
10:04PM 39.9578 -104.6956 181° South 148 170 6,500 -540 Descending Denver Center
10:05PM 39.9233 -104.6956 180° South 136 157 5,900 -660 Descending Denver Center
10:06PM 39.8869 -104.6961 181° South 132 152 5,200 -720 Descending Denver Center
10:08PM 39.8617 -104.6732 North  Level Estimated
10:15PM 39.8617 -104.6732 North  Level Estimated
10:16PM 39.8617 -104.6732 North  Level Estimated